Time;durP1;ratioP1;P1;durP2;ratioP2;P2;SDS_P1;SDS_P2;PMS_P1;PMS_P2;Temp;Humidity;BMP_temperature;BMP_pressure;BME280_temperature;BME280_humidity;BME280_pressure;Samples;Min_cycle;Max_cycle;Signal;HPM_P1;HPM_P2
2022/06/18 00:00:57;;;;;;;8.43;6.40;;;;;;;20.86;100.00;99389.19;4862970;29;20065;-86
2022/06/18 00:03:24;;;;;;;10.38;6.95;;;;;;;20.70;100.00;99380.22;4872178;29;20025;-87
2022/06/18 00:05:54;;;;;;;11.95;7.10;;;;;;;20.55;100.00;99380.88;4876217;29;20123;-88
2022/06/18 00:08:24;;;;;;;10.13;7.50;;;;;;;20.63;100.00;99388.41;4900449;29;20396;-87
2022/06/18 00:13:39;;;;;;;9.95;6.55;;;;;;;20.61;100.00;99390.53;4883629;29;20524;-86
2022/06/18 00:13:45;;;;;;;10.68;8.00;;;;;;;19.99;100.00;99384.56;4883086;29;20056;-88
2022/06/18 00:16:14;;;;;;;9.15;7.30;;;;;;;20.31;100.00;99388.38;4881933;29;20052;-89
2022/06/18 00:18:40;;;;;;;8.20;7.40;;;;;;;20.35;100.00;99381.50;4884694;29;20395;-88
2022/06/18 00:25:28;;;;;;;7.50;6.80;;;;;;;20.10;100.00;99378.31;4900573;29;20047;-89
2022/06/18 00:27:57;;;;;;;10.38;6.95;;;;;;;20.00;100.00;99367.50;4883050;29;20063;-88
2022/06/18 00:30:25;;;;;;;10.07;7.43;;;;;;;19.62;100.00;99374.47;4884634;29;20033;-90
2022/06/18 00:32:51;;;;;;;8.88;7.90;;;;;;;19.46;100.00;99365.47;4899625;29;20032;-91
2022/06/18 00:35:17;;;;;;;8.95;7.90;;;;;;;19.61;100.00;99371.00;4899319;29;20513;-89
2022/06/18 00:37:44;;;;;;;9.20;7.65;;;;;;;19.48;100.00;99356.22;4899223;29;20068;-88
2022/06/18 00:40:23;;;;;;;11.00;8.10;;;;;;;19.57;100.00;99347.78;4882415;29;20040;-87
2022/06/18 00:42:50;;;;;;;8.32;7.20;;;;;;;19.55;100.00;99362.16;4899325;29;20033;-87
2022/06/18 00:45:22;;;;;;;8.82;7.00;;;;;;;19.79;100.00;99356.59;4876955;29;20064;-88
2022/06/18 00:48:06;;;;;;;8.63;7.43;;;;;;;19.58;100.00;99370.69;4880358;29;20033;-88
2022/06/18 00:50:40;;;;;;;8.40;6.10;;;;;;;19.76;100.00;99382.94;4888518;29;20029;-87
2022/06/18 00:53:11;;;;;;;7.60;6.35;;;;;;;19.61;100.00;99383.50;4890599;29;20024;-88
2022/06/18 00:55:52;;;;;;;6.05;5.18;;;;;;;19.62;100.00;99391.25;4873702;29;20088;-86
2022/06/18 00:58:23;;;;;;;7.65;4.88;;;;;;;19.68;100.00;99398.25;4860150;29;20045;-88
2022/06/18 01:00:50;;;;;;;6.07;4.32;;;;;;;19.49;100.00;99397.75;4887556;29;20032;-87
2022/06/18 01:03:27;;;;;;;4.70;3.90;;;;;;;19.61;100.00;99404.81;4894628;29;20459;-88
2022/06/18 01:05:55;;;;;;;5.10;3.78;;;;;;;19.39;100.00;99378.97;4893504;29;20056;-86
2022/06/18 01:08:24;;;;;;;4.13;3.00;;;;;;;19.50;100.00;99401.19;4880443;29;20049;-87
2022/06/18 01:10:57;;;;;;;3.67;3.00;;;;;;;19.48;100.00;99406.78;4880207;29;20040;-88
2022/06/18 01:13:27;;;;;;;3.10;2.53;;;;;;;19.45;100.00;99415.25;4880123;29;20037;-87
2022/06/18 01:15:57;;;;;;;2.53;2.08;;;;;;;19.40;100.00;99415.16;4863575;29;20056;-88
2022/06/18 01:18:23;;;;;;;2.90;2.25;;;;;;;19.02;100.00;99412.22;4863633;29;20037;-89
2022/06/18 01:20:53;;;;;;;3.03;2.28;;;;;;;18.80;100.00;99417.38;4864444;29;20429;-87
2022/06/18 01:23:33;;;;;;;2.35;1.92;;;;;;;19.12;100.00;99409.69;4881748;29;20033;-86
2022/06/18 01:25:59;;;;;;;3.13;2.03;;;;;;;19.23;100.00;99409.88;4880138;29;20372;-87
2022/06/18 01:28:24;;;;;;;2.30;2.10;;;;;;;19.11;100.00;99400.09;4897993;29;20387;-88
2022/06/18 01:30:50;;;;;;;3.67;2.25;;;;;;;19.09;100.00;99396.09;4882025;29;20041;-86
2022/06/18 01:33:18;;;;;;;2.30;2.10;;;;;;;18.92;100.00;99396.03;4858386;29;20060;-87
2022/06/18 01:35:48;;;;;;;2.55;2.35;;;;;;;18.75;100.00;99401.34;4862907;29;20099;-87
2022/06/18 01:38:15;;;;;;;3.90;2.50;;;;;;;18.67;100.00;99395.38;4863532;29;20093;-86
2022/06/18 01:44:00;;;;;;;2.85;2.20;;;;;;;18.56;100.00;99385.59;4863394;29;20044;-88
2022/06/18 01:46:29;;;;;;;3.33;2.10;;;;;;;18.34;100.00;99385.47;4848325;29;20052;-86
2022/06/18 01:48:55;;;;;;;4.28;2.00;;;;;;;18.29;100.00;99388.03;4848150;29;20139;-86
2022/06/18 01:51:25;;;;;;;3.92;2.45;;;;;;;18.27;100.00;99381.09;4879620;29;20029;-86
2022/06/18 01:54:00;;;;;;;3.17;2.03;;;;;;;18.36;100.00;99384.19;4863616;29;20059;-86
2022/06/18 01:56:30;;;;;;;4.70;2.17;;;;;;;18.61;100.00;99377.72;4879975;29;20037;-88
2022/06/18 01:59:04;;;;;;;3.33;2.13;;;;;;;18.69;100.00;99398.59;4879775;29;20510;-86
2022/06/18 02:01:38;;;;;;;4.00;1.88;;;;;;;18.68;100.00;99398.84;4847763;29;20476;-86
2022/06/18 02:04:04;;;;;;;5.40;2.53;;;;;;;18.62;100.00;99397.94;4865339;29;20450;-88
2022/06/18 02:06:34;;;;;;;4.45;2.50;;;;;;;18.75;100.00;99406.66;4863298;29;20129;-85
2022/06/18 02:09:03;;;;;;;3.63;2.30;;;;;;;18.78;100.00;99411.50;4879804;29;20047;-85
2022/06/18 02:11:29;;;;;;;5.05;2.40;;;;;;;18.84;100.00;99410.53;4862605;29;20033;-85
2022/06/18 02:14:04;;;;;;;5.38;2.95;;;;;;;18.42;100.00;99404.50;4847370;29;20093;-89
2022/06/18 02:16:35;;;;;;;7.97;3.08;;;;;;;18.18;100.00;99414.41;4864581;29;20083;-86
2022/06/18 02:19:03;;;;;;;5.90;2.45;;;;;;;18.46;100.00;99406.66;4883311;29;20101;-87
2022/06/18 02:21:35;;;;;;;4.97;2.83;;;;;;;18.38;100.00;99416.66;4883004;29;20491;-85
2022/06/18 02:24:01;;;;;;;7.15;3.03;;;;;;;18.24;100.00;99412.63;4883536;29;20041;-87
2022/06/18 02:26:31;;;;;;;7.65;3.58;;;;;;;18.09;100.00;99415.81;4883402;29;20085;-86
2022/06/18 02:28:58;;;;;;;8.57;3.35;;;;;;;18.15;100.00;99424.69;4883894;29;20028;-87
2022/06/18 02:31:28;;;;;;;8.25;3.00;;;;;;;18.17;100.00;99422.59;4869480;29;20033;-87
2022/06/18 02:33:58;;;;;;;8.90;3.28;;;;;;;18.21;100.00;99419.25;4885050;29;20047;-87
2022/06/18 02:36:29;;;;;;;7.40;2.92;;;;;;;18.31;100.00;99423.97;4897723;29;20025;-88
2022/06/18 02:39:04;;;;;;;4.95;2.67;;;;;;;18.31;100.00;99412.50;4883545;29;20120;-87
2022/06/18 02:41:30;;;;;;;5.00;2.80;;;;;;;18.26;100.00;99421.19;4883155;29;20424;-88
2022/06/18 02:43:57;;;;;;;8.20;3.20;;;;;;;18.28;100.00;99408.50;4883414;29;20484;-89
2022/06/18 02:46:23;;;;;;;8.13;3.03;;;;;;;18.35;100.00;99414.47;4866461;29;20037;-89
2022/06/18 02:48:51;;;;;;;4.95;2.83;;;;;;;18.33;100.00;99408.59;4883318;29;20391;-89
2022/06/18 02:51:16;;;;;;;9.95;3.13;;;;;;;18.16;100.00;99413.81;4882776;29;20037;-88
2022/06/18 02:53:42;;;;;;;7.50;2.65;;;;;;;18.24;100.00;99413.47;4883137;29;20035;-88
2022/06/18 02:56:12;;;;;;;7.00;3.00;;;;;;;18.29;100.00;99404.78;4882854;29;20041;-88
2022/06/18 02:58:41;;;;;;;8.85;2.83;;;;;;;17.99;100.00;99427.00;4865825;29;20040;-87
2022/06/18 03:01:16;;;;;;;7.45;2.95;;;;;;;17.98;100.00;99420.06;4847535;29;20501;-88
2022/06/18 03:03:47;;;;;;;9.20;2.88;;;;;;;18.10;100.00;99418.25;4863630;29;20033;-88
2022/06/18 03:06:14;;;;;;;9.15;2.88;;;;;;;18.22;99.20;99420.88;4864216;29;20056;-87
2022/06/18 03:08:39;;;;;;;9.15;2.50;;;;;;;18.20;99.14;99422.13;4863357;29;20049;-88
2022/06/18 03:13:51;;;;;;;11.57;2.78;;;;;;;18.33;97.80;99426.34;4852834;29;20040;-88
2022/06/18 03:16:19;;;;;;;9.23;2.95;;;;;;;18.15;97.64;99424.69;4894931;29;20032;-87
2022/06/18 03:18:50;;;;;;;9.70;2.92;;;;;;;18.34;96.98;99436.78;4870273;29;20041;-87
2022/06/18 03:21:42;;;;;;;6.97;2.83;;;;;;;18.27;97.16;99441.38;4888333;29;20041;-86
2022/06/18 03:24:08;;;;;;;11.73;3.10;;;;;;;18.27;97.02;99441.38;4877411;29;20076;-87
2022/06/18 03:26:35;;;;;;;8.75;3.22;;;;;;;18.10;97.74;99442.16;4894739;29;20033;-88
2022/06/18 03:29:05;;;;;;;10.20;3.13;;;;;;;18.24;97.12;99437.38;4880996;29;20037;-87
2022/06/18 03:31:32;;;;;;;6.28;2.35;;;;;;;18.25;97.01;99443.47;4893943;29;20040;-87
2022/06/18 03:33:57;;;;;;;9.38;3.40;;;;;;;18.05;97.26;99442.03;4895257;29;20029;-86
2022/06/18 03:36:24;;;;;;;8.48;2.83;;;;;;;18.17;97.34;99449.16;4890124;29;20037;-87
2022/06/18 03:38:52;;;;;;;7.45;2.72;;;;;;;18.23;97.10;99458.84;4881984;29;20086;-90
2022/06/18 03:41:19;;;;;;;9.60;3.05;;;;;;;18.29;96.94;99463.25;4870922;29;20508;-90
2022/06/18 03:43:45;;;;;;;6.63;2.65;;;;;;;17.82;97.82;99458.78;4888434;29;20040;-90
2022/06/18 03:46:14;;;;;;;10.13;4.05;;;;;;;17.74;98.66;99467.06;4886383;29;20056;-89
2022/06/18 03:48:47;;;;;;;8.75;3.15;;;;;;;17.65;99.04;99462.13;4876092;29;20060;-88
2022/06/18 03:51:14;;;;;;;7.57;2.80;;;;;;;17.71;99.29;99463.06;4888921;29;20029;-89
2022/06/18 03:53:40;;;;;;;12.73;3.53;;;;;;;17.79;98.15;99464.56;4884723;29;20033;-87
2022/06/18 03:56:08;;;;;;;7.97;2.80;;;;;;;17.78;98.65;99463.75;4883554;29;20084;-86
2022/06/18 03:58:34;;;;;;;11.15;3.10;;;;;;;17.27;97.88;99458.84;4900406;29;20043;-87
2022/06/18 04:01:00;;;;;;;10.10;2.75;;;;;;;17.39;97.80;99461.53;4876015;29;20040;-88
2022/06/18 04:03:26;;;;;;;7.75;2.67;;;;;;;17.62;97.10;99449.31;4868541;29;20472;-88
2022/06/18 04:05:52;;;;;;;13.98;3.60;;;;;;;17.15;97.19;99444.78;4872496;29;20119;-87
2022/06/18 04:08:19;;;;;;;14.70;3.20;;;;;;;17.12;97.25;99456.63;4865805;29;20144;-87
2022/06/18 04:10:45;;;;;;;13.43;2.90;;;;;;;17.19;96.55;99459.19;4865392;29;20045;-88
2022/06/18 04:13:11;;;;;;;12.90;3.08;;;;;;;16.99;96.81;99468.25;4884943;29;20047;-87
2022/06/18 04:15:37;;;;;;;14.63;3.60;;;;;;;17.03;96.42;99450.06;4900009;29;20394;-87
2022/06/18 04:18:03;;;;;;;17.63;3.83;;;;;;;17.17;95.95;99449.84;4899650;29;20154;-87
2022/06/18 04:20:32;;;;;;;15.18;3.47;;;;;;;16.76;95.75;99458.34;4899752;29;20036;-86
2022/06/18 04:22:57;;;;;;;14.40;3.03;;;;;;;16.73;95.95;99460.66;4883097;29;20028;-92
2022/06/18 04:25:24;;;;;;;17.08;3.33;;;;;;;16.90;95.73;99450.22;4899452;29;20043;-89
2022/06/18 04:27:50;;;;;;;14.82;3.03;;;;;;;16.91;95.43;99454.47;4883084;29;20433;-88
2022/06/18 04:30:17;;;;;;;19.58;3.47;;;;;;;17.04;94.61;99462.28;4853731;29;20041;-87
2022/06/18 04:32:44;;;;;;;12.82;3.55;;;;;;;17.11;94.06;99454.22;4880771;29;20041;-88
2022/06/18 04:35:12;;;;;;;17.38;3.80;;;;;;;17.10;93.87;99457.91;4849221;29;20514;-86
2022/06/18 04:37:38;;;;;;;9.73;3.10;;;;;;;17.03;93.92;99452.72;4880621;29;20037;-87
2022/06/18 04:40:05;;;;;;;11.13;3.33;;;;;;;17.04;93.39;99448.19;4864163;29;20036;-87
2022/06/18 04:42:31;;;;;;;11.85;3.50;;;;;;;16.64;93.88;99445.03;4867837;29;20112;-86
2022/06/18 04:44:57;;;;;;;18.42;3.38;;;;;;;16.60;93.21;99448.34;4896999;29;20135;-86
2022/06/18 04:47:23;;;;;;;10.55;2.72;;;;;;;16.60;93.80;99454.47;4895452;29;20050;-87
2022/06/18 04:49:50;;;;;;;15.50;3.67;;;;;;;16.74;93.02;99462.25;4880596;29;20045;-86
2022/06/18 04:52:17;;;;;;;19.80;3.38;;;;;;;16.61;92.63;99460.59;4880667;29;20037;-87
2022/06/18 04:54:43;;;;;;;8.75;3.38;;;;;;;16.77;92.66;99472.41;4863933;29;20040;-91
2022/06/18 04:57:09;;;;;;;18.90;3.88;;;;;;;16.62;92.72;99455.06;4881612;29;20490;-88
2022/06/18 04:59:41;;;;;;;12.80;3.42;;;;;;;16.78;92.46;99455.47;4864699;29;20029;-87
2022/06/18 05:02:19;;;;;;;16.55;3.22;;;;;;;16.76;91.56;99454.91;4848403;29;20040;-86
2022/06/18 05:04:44;;;;;;;14.68;3.30;;;;;;;16.57;91.72;99460.22;4848366;29;20144;-84
2022/06/18 05:07:10;;;;;;;14.88;3.70;;;;;;;16.52;91.68;99463.53;4848110;29;20128;-86
2022/06/18 05:09:36;;;;;;;11.38;3.42;;;;;;;16.61;91.43;99472.00;4863675;29;20488;-85
2022/06/18 05:12:02;;;;;;;11.48;3.33;;;;;;;16.77;90.98;99467.13;4886624;29;20028;-85
2022/06/18 05:14:27;;;;;;;13.43;3.35;;;;;;;16.79;90.08;99462.41;4858054;29;20044;-88
2022/06/18 05:16:53;;;;;;;17.42;4.03;;;;;;;16.45;90.34;99457.53;4855668;29;20041;-87
2022/06/18 05:19:24;;;;;;;11.43;3.35;;;;;;;16.69;89.94;99473.53;4863312;29;20131;-87
2022/06/18 05:21:51;;;;;;;16.67;4.20;;;;;;;16.47;89.78;99471.34;4865202;29;20488;-87
2022/06/18 05:24:17;;;;;;;17.98;4.07;;;;;;;16.45;89.41;99472.59;4866225;29;20045;-88
2022/06/18 05:26:53;;;;;;;15.90;3.33;;;;;;;16.51;89.15;99488.44;4858315;29;20072;-88
2022/06/18 05:29:22;;;;;;;14.73;3.30;;;;;;;16.16;89.04;99472.34;4853434;29;20077;-86
2022/06/18 05:31:48;;;;;;;17.70;3.85;;;;;;;16.15;90.10;99489.25;4891907;29;20029;-88
2022/06/18 05:34:13;;;;;;;9.93;3.15;;;;;;;16.47;89.47;99486.44;4872200;29;20124;-84
2022/06/18 05:36:40;;;;;;;24.40;3.83;;;;;;;16.47;88.64;99475.84;4891459;29;20060;-85
2022/06/18 05:39:07;;;;;;;12.77;2.95;;;;;;;16.49;88.72;99487.03;4888971;29;20449;-85
2022/06/18 05:41:33;;;;;;;19.92;3.97;;;;;;;16.42;88.64;99493.22;4868070;29;20480;-85
2022/06/18 05:44:00;;;;;;;11.30;3.50;;;;;;;16.52;88.51;99497.19;4889667;29;20084;-87
2022/06/18 05:46:26;;;;;;;19.50;3.95;;;;;;;16.37;88.86;99498.38;4887492;29;20029;-86
2022/06/18 05:48:53;;;;;;;15.70;3.33;;;;;;;16.52;88.95;99490.03;4873098;29;20063;-84
2022/06/18 05:51:19;;;;;;;19.38;4.10;;;;;;;16.22;89.01;99505.88;4887982;29;20053;-88
2022/06/18 05:53:45;;;;;;;17.15;3.85;;;;;;;16.41;88.83;99504.84;4888621;29;20035;-89
2022/06/18 05:56:11;;;;;;;19.15;3.78;;;;;;;16.57;88.56;99510.59;4870400;29;20094;-89
2022/06/18 05:58:37;;;;;;;15.80;3.95;;;;;;;16.45;88.04;99497.28;4888398;29;20060;-89
2022/06/18 06:01:04;;;;;;;13.85;3.95;;;;;;;16.58;87.50;99504.25;4891070;29;20040;-89
2022/06/18 06:03:29;;;;;;;13.00;3.67;;;;;;;16.58;87.54;99522.81;4858941;29;20083;-88
2022/06/18 06:05:55;;;;;;;19.35;4.00;;;;;;;16.69;86.54;99524.69;4869704;29;20061;-89
2022/06/18 06:08:21;;;;;;;14.80;3.78;;;;;;;16.65;86.22;99515.56;4887655;29;20439;-87
2022/06/18 06:13:30;;;;;;;22.60;4.70;;;;;;;16.73;85.83;99500.41;4891509;29;20035;-90
2022/06/18 06:15:56;;;;;;;17.17;3.78;;;;;;;16.98;85.61;99518.81;4881189;29;20464;-86
2022/06/18 06:18:24;;;;;;;14.90;3.42;;;;;;;16.84;84.62;99524.31;4884428;29;20032;-82
2022/06/18 06:20:55;;;;;;;23.40;4.50;;;;;;;16.81;85.34;99529.25;4852982;29;20087;-82
2022/06/18 06:23:21;;;;;;;14.88;4.30;;;;;;;16.98;84.59;99529.44;4881470;29;20033;-84
2022/06/18 06:25:48;;;;;;;15.68;4.22;;;;;;;16.87;83.87;99538.16;4868217;29;20042;-83
2022/06/18 06:28:20;;;;;;;14.98;4.30;;;;;;;16.70;84.18;99544.06;4885053;29;20033;-85
2022/06/18 06:30:46;;;;;;;20.40;4.15;;;;;;;16.81;83.98;99553.09;4884963;29;20403;-85
2022/06/18 06:33:12;;;;;;;12.77;3.30;;;;;;;16.98;83.87;99562.09;4870903;29;20429;-83
2022/06/18 06:35:37;;;;;;;15.25;3.85;;;;;;;16.75;83.47;99567.25;4869088;29;20041;-81
2022/06/18 06:38:04;;;;;;;14.77;3.53;;;;;;;16.82;83.29;99565.34;4871424;29;20040;-83
2022/06/18 06:40:31;;;;;;;18.23;3.25;;;;;;;16.87;82.24;99570.75;4887265;29;20036;-83
2022/06/18 06:42:57;;;;;;;11.95;3.50;;;;;;;16.94;82.05;99566.22;4884300;29;20407;-81
2022/06/18 06:45:27;;;;;;;11.32;3.10;;;;;;;17.06;82.29;99549.56;4885155;29;20029;-82
2022/06/18 06:47:54;;;;;;;9.52;3.60;;;;;;;16.96;81.71;99553.53;4883596;29;20037;-82
2022/06/18 06:50:21;;;;;;;16.92;3.67;;;;;;;17.07;81.76;99565.25;4868547;29;20056;-82
2022/06/18 06:52:50;;;;;;;13.43;3.67;;;;;;;17.31;81.28;99564.53;4884126;29;20033;-80
2022/06/18 06:58:08;;;;;;;11.20;3.75;;;;;;;17.46;81.01;99556.16;4878472;29;20108;-81
2022/06/18 07:00:38;;;;;;;16.23;4.38;;;;;;;17.61;80.50;99569.00;4888446;29;20085;-82
2022/06/18 07:03:04;;;;;;;17.55;4.18;;;;;;;17.54;80.78;99553.97;4870700;29;20032;-83
2022/06/18 07:05:30;;;;;;;17.48;4.28;;;;;;;17.66;79.86;99534.59;4888861;29;20112;-83
2022/06/18 07:07:56;;;;;;;13.88;3.88;;;;;;;17.93;80.28;99518.22;4874293;29;20053;-85
2022/06/18 07:10:22;;;;;;;14.07;3.60;;;;;;;18.27;79.63;99537.03;4860255;29;20036;-82
2022/06/18 07:12:48;;;;;;;16.23;3.90;;;;;;;18.11;79.31;99527.94;4892228;29;20461;-81
2022/06/18 07:15:13;;;;;;;15.93;3.75;;;;;;;18.61;78.38;99544.41;4886528;29;20131;-81
2022/06/18 07:17:40;;;;;;;13.15;4.10;;;;;;;18.92;77.60;99547.66;4858595;29;20044;-81
2022/06/18 07:20:09;;;;;;;15.63;4.93;;;;;;;18.89;77.50;99548.13;4886721;29;20085;-84
2022/06/18 07:22:35;;;;;;;17.05;4.40;;;;;;;19.02;77.29;99555.03;4871672;29;20033;-81
2022/06/18 07:25:01;;;;;;;14.07;3.95;;;;;;;19.16;77.68;99545.72;4869438;29;20471;-81
2022/06/18 07:27:29;;;;;;;15.43;4.40;;;;;;;18.73;76.31;99541.72;4884476;29;20036;-81
2022/06/18 07:29:57;;;;;;;16.80;4.65;;;;;;;18.82;76.86;99546.41;4874137;29;20084;-82
2022/06/18 07:32:23;;;;;;;18.35;4.80;;;;;;;19.07;76.51;99526.69;4884515;29;20033;-79
2022/06/18 07:34:49;;;;;;;12.93;4.32;;;;;;;19.22;77.33;99514.69;4884595;29;20063;-79
2022/06/18 07:37:14;;;;;;;11.63;3.85;;;;;;;19.61;76.08;99503.34;4889690;29;20060;-80
2022/06/18 07:39:40;;;;;;;14.30;4.00;;;;;;;19.74;75.63;99512.84;4886286;29;20045;-79
2022/06/18 07:42:07;;;;;;;16.13;4.35;;;;;;;19.62;75.35;99529.72;4887190;29;20029;-80
2022/06/18 07:44:32;;;;;;;13.98;3.90;;;;;;;19.95;74.16;99530.78;4870888;29;20036;-79
2022/06/18 07:46:58;;;;;;;14.48;4.68;;;;;;;20.27;73.51;99526.69;4886961;29;20041;-78
2022/06/18 07:49:25;;;;;;;16.42;4.30;;;;;;;20.47;71.73;99509.34;4882837;29;20037;-79
2022/06/18 07:51:51;;;;;;;18.58;4.75;;;;;;;20.33;70.99;99493.69;4882642;29;20056;-79
2022/06/18 07:54:18;;;;;;;14.18;3.60;;;;;;;20.28;69.91;99496.31;4884138;29;20040;-80
2022/06/18 07:56:44;;;;;;;16.23;3.65;;;;;;;20.26;68.67;99479.75;4866329;29;20035;-79
2022/06/18 07:59:11;;;;;;;9.13;3.95;;;;;;;20.46;68.66;99491.72;4873209;29;20041;-79
2022/06/18 08:01:38;;;;;;;7.53;3.80;;;;;;;20.17;67.44;99491.88;4888076;29;20040;-78
2022/06/18 08:04:05;;;;;;;10.07;3.67;;;;;;;19.99;67.29;99509.78;4888330;29;20036;-80
2022/06/18 08:06:31;;;;;;;8.02;3.80;;;;;;;20.01;68.36;99512.22;4867826;29;20025;-79
2022/06/18 08:08:57;;;;;;;12.32;3.45;;;;;;;19.73;65.74;99485.41;4884399;29;20053;-81
2022/06/18 08:11:25;;;;;;;6.85;3.10;;;;;;;19.53;65.10;99484.06;4885538;29;20033;-81
2022/06/18 08:13:51;;;;;;;12.32;3.05;;;;;;;19.98;65.41;99469.03;4864520;29;20029;-79
2022/06/18 08:16:20;;;;;;;6.32;2.83;;;;;;;19.95;64.54;99458.88;4884107;29;20037;-80
2022/06/18 08:18:46;;;;;;;6.22;2.95;;;;;;;20.02;65.40;99463.97;4888437;29;20067;-80
2022/06/18 08:21:19;;;;;;;10.35;3.13;;;;;;;19.85;64.16;99472.00;4871064;29;20028;-79
2022/06/18 08:23:50;;;;;;;7.32;2.90;;;;;;;19.95;63.44;99482.84;4885428;29;20025;-80
2022/06/18 08:26:16;;;;;;;7.00;2.97;;;;;;;19.47;62.90;99493.03;4888309;29;20033;-80
2022/06/18 08:28:41;;;;;;;6.70;3.00;;;;;;;19.10;64.27;99494.28;4884820;29;20467;-81
2022/06/18 08:31:08;;;;;;;11.18;3.42;;;;;;;19.16;64.86;99516.47;4883384;29;20043;-80
2022/06/18 08:33:34;;;;;;;8.40;3.45;;;;;;;19.42;64.39;99527.53;4877757;29;20037;-82
2022/06/18 08:36:02;;;;;;;8.90;3.28;;;;;;;19.20;64.77;99533.56;4887235;29;20041;-80
2022/06/18 08:38:29;;;;;;;14.40;3.33;;;;;;;18.98;65.10;99518.28;4867260;29;20025;-83
2022/06/18 08:41:32;;;;;;;7.35;2.95;;;;;;;19.47;64.59;99519.66;4887080;29;20041;-84
2022/06/18 08:44:23;;;;;;;9.60;3.50;;;;;;;19.57;63.07;99519.00;4884020;29;20396;-83
2022/06/18 08:47:21;;;;;;;6.45;2.90;;;;;;;19.40;63.51;99524.31;4839188;29;20044;-81
2022/06/18 08:50:18;;;;;;;9.85;3.00;;;;;;;20.00;63.75;99516.72;4882230;29;20441;-81
2022/06/18 08:53:03;;;;;;;14.77;4.00;;;;;;;20.06;63.31;99514.94;4878731;29;20032;-84
2022/06/18 08:55:31;;;;;;;5.70;2.97;;;;;;;20.53;63.89;99532.34;4884911;29;20415;-87
2022/06/18 08:58:24;;;;;;;13.55;3.58;;;;;;;20.72;64.21;99543.47;4866791;29;20404;-85
2022/06/18 09:01:00;;;;;;;6.10;3.00;;;;;;;20.71;63.31;99546.41;4870921;29;20037;-87
2022/06/18 09:03:58;;;;;;;8.73;2.97;;;;;;;21.42;62.74;99524.19;4867217;29;20089;-86
2022/06/18 09:06:38;;;;;;;8.10;3.28;;;;;;;21.41;61.81;99517.22;4887791;29;20051;-86
2022/06/18 09:09:22;;;;;;;10.40;3.45;;;;;;;20.71;61.68;99504.50;4870214;29;20052;-79
2022/06/18 09:12:05;;;;;;;;;;;;;;;20.35;59.91;99499.59;4866155;29;20491;-79
2022/06/18 09:14:36;;;;;;;7.05;3.78;;;;;;;20.65;59.48;99493.00;4877852;29;19916;-79
2022/06/18 09:17:12;;;;;;;8.18;2.70;;;;;;;20.71;59.82;99499.19;4866045;29;20548;-78
2022/06/18 09:19:41;;;;;;;6.78;3.10;;;;;;;20.54;58.29;99512.59;4885132;29;20116;-79
2022/06/18 09:22:14;;;;;;;7.85;3.00;;;;;;;20.54;58.69;99515.28;4869934;29;20056;-79
2022/06/18 09:24:43;;;;;;;8.65;3.15;;;;;;;20.14;59.06;99538.50;4884901;29;20042;-78
2022/06/18 09:27:37;;;;;;;8.57;3.10;;;;;;;19.67;59.55;99559.09;4872262;29;20101;-78
2022/06/18 09:30:14;;;;;;;5.47;2.78;;;;;;;20.12;59.60;99560.06;4891108;29;20109;-78
2022/06/18 09:32:52;;;;;;;5.38;2.80;;;;;;;20.38;59.36;99567.63;4891454;29;20033;-79
2022/06/18 09:35:28;;;;;;;5.47;2.83;;;;;;;20.21;59.21;99551.63;4884116;29;20033;-79
2022/06/18 09:37:56;;;;;;;7.18;3.05;;;;;;;20.69;58.31;99542.13;4886043;29;20075;-79
2022/06/18 09:40:39;;;;;;;4.78;2.72;;;;;;;21.17;58.00;99512.22;4886541;29;20116;-79
2022/06/18 09:43:17;;;;;;;7.33;3.00;;;;;;;21.01;57.78;99502.44;4870047;29;20116;-78
2022/06/18 09:45:49;;;;;;;8.02;3.15;;;;;;;21.32;57.65;99481.38;4886540;29;20045;-78
2022/06/18 09:48:15;;;;;;;10.80;2.92;;;;;;;21.12;57.50;99485.47;4886438;29;20040;-79
2022/06/18 09:50:49;;;;;;;7.70;2.83;;;;;;;21.30;58.43;99486.16;4873371;29;20776;-79
2022/06/18 09:53:22;;;;;;;8.05;2.85;;;;;;;21.24;58.20;99491.47;4890861;29;20033;-79
2022/06/18 09:56:14;;;;;;;7.93;2.70;;;;;;;21.23;58.90;99489.84;4857600;29;20036;-79
2022/06/18 09:58:58;;;;;;;7.53;2.88;;;;;;;21.24;57.62;99488.78;4866098;29;20093;-78
2022/06/18 10:01:46;;;;;;;6.97;3.20;;;;;;;21.10;57.94;99484.94;4887936;29;20041;-79
2022/06/18 10:07:05;;;;;;;9.85;3.38;;;;;;;20.80;59.10;99479.06;4880225;29;20071;-79
2022/06/18 10:09:38;;;;;;;8.60;3.20;;;;;;;20.73;59.17;99488.28;4878964;29;20045;-79
2022/06/18 10:12:25;;;;;;;7.15;3.17;;;;;;;20.22;59.69;99473.28;4887865;29;20028;-79
2022/06/18 10:15:05;;;;;;;8.88;3.30;;;;;;;20.76;59.74;99479.75;4882028;29;20032;-79
2022/06/18 10:17:43;;;;;;;13.50;3.45;;;;;;;20.48;57.79;99484.28;4867865;29;20044;-79
2022/06/18 10:20:32;;;;;;;7.97;3.38;;;;;;;20.81;57.54;99478.00;4878108;29;20028;-79
2022/06/18 10:23:23;;;;;;;7.75;2.97;;;;;;;21.33;56.87;99464.28;4869100;29;20056;-79
2022/06/18 10:26:10;;;;;;;12.70;3.72;;;;;;;21.56;56.77;99455.13;4866198;29;20036;-79
2022/06/18 10:28:46;;;;;;;14.30;3.85;;;;;;;22.10;56.13;99455.94;4879531;29;20048;-79
2022/06/18 10:31:29;;;;;;;9.75;3.30;;;;;;;22.10;57.39;99456.75;4863788;29;20047;-79
2022/06/18 10:34:11;;;;;;;6.03;3.25;;;;;;;22.07;55.66;99446.59;4856449;29;20491;-79
2022/06/18 10:36:58;;;;;;;9.75;3.22;;;;;;;22.75;55.79;99441.44;4890444;29;20029;-79
2022/06/18 10:39:54;;;;;;;6.57;3.22;;;;;;;23.00;55.32;99426.50;4868601;29;20506;-79
2022/06/18 10:42:19;;;;;;;7.80;3.33;;;;;;;23.15;54.93;99428.38;4885102;29;20544;-79
2022/06/18 10:45:11;;;;;;;8.70;3.30;;;;;;;22.75;55.30;99425.41;4888770;29;20029;-78
2022/06/18 10:47:41;;;;;;;9.60;3.40;;;;;;;22.30;56.75;99415.13;4871593;29;20451;-79
2022/06/18 10:50:12;;;;;;;8.50;3.45;;;;;;;21.87;57.85;99409.09;4888070;29;20379;-80
2022/06/18 10:52:38;;;;;;;7.13;3.03;;;;;;;21.96;58.09;99411.00;4870741;29;20028;-83
2022/06/18 10:55:11;;;;;;;8.82;4.43;;;;;;;22.03;57.66;99409.94;4888716;29;20115;-83
2022/06/18 10:57:39;;;;;;;11.00;3.50;;;;;;;21.80;58.25;99412.00;4888495;29;20115;-84
2022/06/18 11:00:25;;;;;;;11.02;3.25;;;;;;;21.69;58.30;99419.16;4888268;29;20471;-83
2022/06/18 11:03:01;;;;;;;11.00;3.60;;;;;;;21.67;58.05;99437.31;4869203;29;20029;-83
2022/06/18 11:05:31;;;;;;;10.15;3.80;;;;;;;21.59;58.47;99443.09;4866276;29;20466;-83
2022/06/18 11:08:00;;;;;;;9.63;3.00;;;;;;;21.66;58.39;99435.72;4883320;29;20079;-84
2022/06/18 11:10:44;;;;;;;10.10;3.65;;;;;;;21.50;56.95;99440.91;4889259;29;20115;-83
2022/06/18 11:13:25;;;;;;;8.43;3.33;;;;;;;22.19;57.61;99461.59;4881648;29;20064;-85
2022/06/18 11:16:03;;;;;;;13.70;4.32;;;;;;;22.58;56.91;99458.53;4866056;29;20452;-84
2022/06/18 11:18:29;;;;;;;9.88;3.88;;;;;;;22.16;56.82;99467.47;4890481;29;20029;-85
2022/06/18 11:20:55;;;;;;;10.75;3.85;;;;;;;22.10;56.39;99467.44;4889564;29;20119;-85
2022/06/18 11:23:21;;;;;;;7.30;3.17;;;;;;;22.15;56.63;99471.22;4884673;29;20108;-84
2022/06/18 11:25:52;;;;;;;8.90;3.35;;;;;;;21.30;57.74;99473.59;4883903;29;20033;-82
2022/06/18 11:28:23;;;;;;;12.75;4.07;;;;;;;21.28;58.16;99469.59;4886635;29;20115;-83
2022/06/18 11:30:52;;;;;;;9.18;4.40;;;;;;;22.14;58.13;99477.63;4867872;29;20049;-86
2022/06/18 11:33:37;;;;;;;14.35;3.97;;;;;;;22.67;57.21;99470.34;4883869;29;20356;-85
2022/06/18 11:36:15;;;;;;;8.23;3.75;;;;;;;23.67;55.88;99459.38;4889127;29;20452;-86
2022/06/18 11:38:52;;;;;;;15.63;3.80;;;;;;;23.92;55.22;99459.59;4889716;29;21945;-85
2022/06/18 11:41:22;;;;;;;10.23;3.38;;;;;;;24.10;55.40;99453.66;4882756;29;20032;-85
2022/06/18 11:44:20;;;;;;;11.25;3.75;;;;;;;24.04;55.43;99460.13;4887596;29;20041;-87
2022/06/18 11:47:07;;;;;;;13.88;3.88;;;;;;;24.46;54.67;99473.34;4884550;29;20068;-85
2022/06/18 11:49:40;;;;;;;12.35;3.72;;;;;;;22.71;54.21;99478.66;4885788;29;20510;-83
2022/06/18 11:52:41;;;;;;;9.35;3.70;;;;;;;22.29;54.98;99485.72;4885923;29;20037;-83
2022/06/18 11:55:26;;;;;;;7.22;3.47;;;;;;;23.20;53.78;99485.41;4870518;29;20048;-83
2022/06/18 11:58:43;;;;;;;8.90;3.40;;;;;;;23.35;53.50;99475.78;4869605;29;20033;-84
2022/06/18 12:01:27;;;;;;;8.05;3.50;;;;;;;22.59;53.40;99478.88;4819087;29;20042;-84
2022/06/18 12:03:59;;;;;;;10.15;4.20;;;;;;;23.02;54.19;99472.53;4866666;29;20580;-83